Crominia, Brazil
Current Conditions -  °F | °C
As of 10:00 PM on Saturday 22 Nov 2014 (Local Time) from SBGO Reporting Station
Scattered Clouds Scattered Clouds  
Wind Chill: 73°   Ceiling: Unl
Heat Index: 73°   Visibility: 6mi
Dew Point: 68°   Wind: 5mph
Humidity: 83%   Direction: 30°NNE
Pressure: 29.97"   Gusts: NA
Location:  17.29°S, 49.38°W
Report Text: SBGO 230000Z 03004KT 9999 FEW045 SCT100 23/20 Q1015
Loading
Personal Weather Stations






























Interactive Weather Map New forecast layout! Learn more

10-Day Weather Forecast

Advertisements
Track Severe Weather on mobile